If you wish to contribute or participate in the discussions about articles you are invited to join SKYbrary as a registered user

 Actions

Bassatine Air Base

From SKYbrary Wiki

GMFM
Airport
ICAO: GMFM
Summary
Name Bassatine Air Base
Region Africa
Territory Morocco MA.gif
Location Meknes
Serving
Coordinates 33° 53' 0.01" N, 5° 31' 8.50" W
Runways
Designator Length Width Surface ROPS
8/26 1957 m6,420.604 ft
50 m164.042 ft
ASP /
9/27 2820 m9,251.969 ft
50 m164.042 ft
ASP /


METAR
Observation GMFM 252300Z 08006KT 8000 SCT020 17/08 Q1008 NOSIG
Station Meknes
Date/Time 25 March 2019 23:00:00
Wind direction 80°
Wind speed 06 kts
Lowest cloud amount scattered clouds
Temperature 17°C
Dew point 8°C
Humidity 55%
QNH 1008 hPa
Weather condition n/a

Bassatine Air Base (IATA: MEK) is a military air base in Meknes, the capital city of the Meknès-Tafilalet region in Morocco. It is also known as the Second Royal Air Force Base, operated by the Royal Moroccan Air Force.